createdAt,value
2023-05-24T00:00:34.454Z,99057.50
2023-05-24T00:03:03.071Z,99062.19
2023-05-24T00:05:31.512Z,99066.34
2023-05-24T00:07:59.516Z,99058.75
2023-05-24T00:10:26.741Z,99064.50
2023-05-24T00:12:53.905Z,99062.91
2023-05-24T00:15:21.243Z,99058.03
2023-05-24T00:17:48.436Z,99061.09
2023-05-24T00:20:15.717Z,99055.13
2023-05-24T00:22:42.932Z,99051.88
2023-05-24T00:25:10.210Z,99054.44
2023-05-24T00:27:37.810Z,99047.03
2023-05-24T00:30:06.562Z,99048.94
2023-05-24T00:32:43.319Z,99046.84
2023-05-24T00:35:10.836Z,99055.53
2023-05-24T00:37:38.107Z,99046.84
2023-05-24T00:40:06.703Z,99040.06
2023-05-24T00:42:34.157Z,99029.59
2023-05-24T00:45:01.271Z,99029.13
2023-05-24T00:47:31.245Z,99026.38
2023-05-24T00:50:00.034Z,99028.63
2023-05-24T00:52:27.328Z,99024.75
2023-05-24T00:54:55.964Z,99024.44
2023-05-24T00:57:24.092Z,99026.38
2023-05-24T00:59:52.707Z,99032.66
2023-05-24T01:02:21.616Z,99029.13
2023-05-24T01:04:51.986Z,99020.72
2023-05-24T01:07:27.365Z,99016.34
2023-05-24T01:10:26.693Z,99020.09
2023-05-24T01:13:21.575Z,99018.78
2023-05-24T01:16:01.853Z,99020.22
2023-05-24T01:18:35.066Z,99019.72
2023-05-24T01:21:20.842Z,99016.66
2023-05-24T01:24:10.866Z,99012.63
2023-05-24T01:26:53.073Z,99012.00
2023-05-24T01:29:20.685Z,99002.50
2023-05-24T01:31:48.343Z,99007.16
2023-05-24T01:34:15.778Z,99000.84
2023-05-24T01:36:42.900Z,98988.00
2023-05-24T01:39:12.185Z,98999.75
2023-05-24T01:41:54.849Z,99007.34
2023-05-24T01:44:44.089Z,98998.81
2023-05-24T01:47:40.149Z,99004.47
2023-05-24T01:50:31.803Z,99010.56
2023-05-24T01:53:05.052Z,99014.13
2023-05-24T01:55:33.709Z,99009.16
2023-05-24T01:58:03.216Z,99000.94
2023-05-24T02:00:31.585Z,98999.31
2023-05-24T02:02:59.493Z,99006.91
2023-05-24T02:05:26.710Z,99006.41
2023-05-24T02:07:53.871Z,99002.25
2023-05-24T02:10:21.089Z,99003.88
2023-05-24T02:12:48.289Z,98996.47
2023-05-24T02:15:15.502Z,99000.00
2023-05-24T02:17:43.421Z,99000.19
2023-05-24T02:20:13.588Z,98999.38
2023-05-24T02:22:41.679Z,98993.41
2023-05-24T02:25:08.977Z,98998.25
2023-05-24T02:27:36.215Z,98994.91
2023-05-24T02:30:03.562Z,98997.03
2023-05-24T02:32:33.057Z,98996.09
2023-05-24T02:35:01.952Z,98987.59
2023-05-24T02:37:31.156Z,98988.91
2023-05-24T02:39:58.354Z,98992.94
2023-05-24T02:42:25.716Z,98988.78
2023-05-24T02:44:53.001Z,98987.66
2023-05-24T02:47:20.571Z,98984.28
2023-05-24T02:49:47.715Z,98977.06
2023-05-24T02:52:16.141Z,98977.06
2023-05-24T02:54:43.265Z,98982.13
2023-05-24T02:57:36.458Z,98985.03
2023-05-24T03:00:06.678Z,98977.63
2023-05-24T03:02:38.617Z,98974.91
2023-05-24T03:05:07.239Z,98982.31
2023-05-24T03:07:34.412Z,98986.97
2023-05-24T03:10:01.664Z,98976.34
2023-05-24T03:12:31.796Z,98971.34
2023-05-24T03:14:59.098Z,98978.44
2023-05-24T03:17:26.796Z,98981.72
2023-05-24T03:19:54.176Z,98989.59
2023-05-24T03:22:21.360Z,98983.00
2023-05-24T03:24:48.937Z,98989.47
2023-05-24T03:27:16.749Z,98988.53
2023-05-24T03:29:43.970Z,98981.78
2023-05-24T03:32:12.066Z,98974.25
2023-05-24T03:34:39.298Z,98977.16
2023-05-24T03:37:06.782Z,98975.75
2023-05-24T03:39:34.176Z,98974.31
2023-05-24T03:42:18.937Z,98961.41
2023-05-24T03:44:46.099Z,98958.34
2023-05-24T03:47:13.476Z,98955.31
2023-05-24T03:49:40.635Z,98955.47
2023-05-24T03:52:08.096Z,98953.88
2023-05-24T03:54:35.166Z,98949.38
2023-05-24T03:57:02.709Z,98953.41
2023-05-24T03:59:31.030Z,98947.81
2023-05-24T04:01:58.378Z,98946.69
2023-05-24T04:04:25.635Z,98953.97
2023-05-24T04:06:54.016Z,98952.84
2023-05-24T04:09:22.809Z,98953.16
2023-05-24T04:11:50.503Z,98953.97
2023-05-24T04:14:17.617Z,98950.41
2023-05-24T04:16:45.368Z,98940.91
2023-05-24T04:19:12.862Z,98941.56
2023-05-24T04:21:40.035Z,98953.16
2023-05-24T04:24:07.327Z,98951.88
2023-05-24T04:26:34.893Z,98955.13
2023-05-24T04:29:02.038Z,98949.47
2023-05-24T04:31:30.492Z,98945.81
2023-05-24T04:33:59.281Z,98945.53
2023-05-24T04:36:26.405Z,98953.13
2023-05-24T04:38:56.269Z,98950.25
2023-05-24T04:41:24.547Z,98942.31
2023-05-24T04:43:51.869Z,98947.31
2023-05-24T04:46:19.051Z,98952.00
2023-05-24T04:48:46.292Z,98951.13
2023-05-24T04:51:13.306Z,98949.78
2023-05-24T04:53:40.657Z,98933.31
2023-05-24T04:56:07.852Z,98945.81
2023-05-24T04:58:36.248Z,98947.81
2023-05-24T05:01:04.256Z,98951.13
2023-05-24T05:03:31.804Z,98954.41
2023-05-24T05:05:59.862Z,98957.41
2023-05-24T05:08:27.069Z,98963.34
2023-05-24T05:10:54.214Z,98971.34
2023-05-24T05:13:21.374Z,98975.16
2023-05-24T05:15:48.492Z,98977.91
2023-05-24T05:18:16.777Z,98970.28
2023-05-24T05:20:44.133Z,98976.59
2023-05-24T05:23:11.441Z,98968.78
2023-05-24T05:25:38.549Z,98977.19
2023-05-24T05:28:05.831Z,98974.88
2023-05-24T05:30:32.944Z,98971.13
2023-05-24T05:33:00.248Z,98974.00
2023-05-24T05:35:27.388Z,98974.72
2023-05-24T05:37:54.494Z,98972.69
2023-05-24T05:40:21.714Z,98973.25
2023-05-24T05:42:51.308Z,98970.63
2023-05-24T05:45:18.704Z,98967.31
2023-05-24T05:47:45.890Z,98965.81
2023-05-24T05:50:13.074Z,98969.19
2023-05-24T05:52:40.242Z,98965.84
2023-05-24T05:55:08.150Z,98968.75
2023-05-24T05:57:35.436Z,98964.16
2023-05-24T06:00:02.679Z,98965.19
2023-05-24T06:02:40.034Z,98952.69
2023-05-24T06:05:07.669Z,98949.09
2023-05-24T06:07:36.006Z,98945.88
2023-05-24T06:10:03.539Z,98953.59
2023-05-24T06:12:32.981Z,98946.59
2023-05-24T06:15:00.407Z,98949.44
2023-05-24T06:17:28.552Z,98956.69
2023-05-24T06:19:56.098Z,98952.78
2023-05-24T06:22:23.667Z,98947.94
2023-05-24T06:24:50.845Z,98944.97
2023-05-24T06:27:17.963Z,98944.28
2023-05-24T06:29:45.488Z,98940.03
2023-05-24T06:32:12.881Z,98949.00
2023-05-24T06:34:40.209Z,98949.34
2023-05-24T06:37:10.461Z,98948.06
2023-05-24T06:39:38.078Z,98951.84
2023-05-24T06:42:05.604Z,98950.16
2023-05-24T06:44:37.247Z,98941.28
2023-05-24T06:47:05.953Z,98948.63
2023-05-24T06:49:33.485Z,98944.56
2023-05-24T06:52:00.541Z,98943.19
2023-05-24T06:54:27.646Z,98934.63
2023-05-24T06:56:54.747Z,98946.69
2023-05-24T06:59:23.039Z,98948.00
2023-05-24T07:01:53.555Z,98956.28
2023-05-24T07:04:20.758Z,98955.75
2023-05-24T07:06:48.201Z,98951.56
2023-05-24T07:09:16.130Z,98950.03
2023-05-24T07:11:43.407Z,98952.91
2023-05-24T07:14:10.543Z,98944.25
2023-05-24T07:16:37.787Z,98953.78
2023-05-24T07:19:05.146Z,98955.75
2023-05-24T07:21:32.437Z,98963.25
2023-05-24T07:23:59.657Z,98959.50
2023-05-24T07:26:26.877Z,98960.31
2023-05-24T07:28:53.895Z,98956.47
2023-05-24T07:31:23.439Z,98960.41
2023-05-24T07:33:50.656Z,98955.13
2023-05-24T07:36:18.049Z,98962.44
2023-05-24T07:38:48.080Z,98961.00
2023-05-24T07:41:20.234Z,98946.50
2023-05-24T07:43:47.498Z,98974.34
2023-05-24T07:46:15.311Z,98947.72
2023-05-24T07:48:45.234Z,98958.16
2023-05-24T07:51:41.632Z,98969.31
2023-05-24T07:54:13.727Z,98957.81
2023-05-24T07:56:44.754Z,98933.72
2023-05-24T07:59:12.278Z,98954.44
2023-05-24T08:01:39.757Z,98966.53
2023-05-24T08:04:10.042Z,98975.06
2023-05-24T08:06:37.627Z,98982.31
2023-05-24T08:09:09.698Z,98973.59
2023-05-24T08:11:37.182Z,98964.03
2023-05-24T08:14:04.502Z,98969.09
2023-05-24T08:16:32.838Z,98971.06
2023-05-24T08:19:00.923Z,98970.28
2023-05-24T08:21:32.156Z,98996.25
2023-05-24T08:24:00.765Z,98972.22
2023-05-24T08:26:28.290Z,98963.59
2023-05-24T08:28:55.776Z,98956.34
2023-05-24T08:31:23.273Z,98953.00
2023-05-24T08:33:51.540Z,98964.28
2023-05-24T08:36:19.116Z,98963.13
2023-05-24T08:38:49.184Z,98959.56
2023-05-24T08:41:16.554Z,98953.44
2023-05-24T08:43:44.981Z,98959.66
2023-05-24T08:46:15.460Z,98973.25
2023-05-24T08:48:47.630Z,98979.13
2023-05-24T08:51:16.406Z,98964.50
2023-05-24T08:53:50.152Z,98965.03
2023-05-24T08:56:18.599Z,98960.47
2023-05-24T08:58:47.369Z,98958.44
2023-05-24T09:01:21.046Z,98978.44
2023-05-24T09:03:51.830Z,98968.25
2023-05-24T09:06:23.102Z,98952.81
2023-05-24T09:08:52.808Z,98966.50
2023-05-24T09:11:23.264Z,98961.63
2023-05-24T09:13:51.962Z,98956.78
2023-05-24T09:16:19.758Z,98987.19
2023-05-24T09:18:47.700Z,98951.16
2023-05-24T09:21:15.629Z,98946.25
2023-05-24T09:23:43.840Z,98949.53
2023-05-24T09:26:11.963Z,98952.75
2023-05-24T09:28:42.230Z,98975.28
2023-05-24T09:31:09.669Z,98968.56
2023-05-24T09:33:37.310Z,98958.41
2023-05-24T09:36:06.750Z,98962.78
2023-05-24T09:38:41.195Z,98958.84
2023-05-24T09:47:42.274Z,98969.59
2023-05-24T09:50:14.884Z,98973.47
2023-05-24T09:52:42.457Z,98978.31
2023-05-24T09:55:15.690Z,98977.91
2023-05-24T09:58:02.884Z,98978.66
2023-05-24T10:00:40.131Z,98976.59
2023-05-24T10:03:14.836Z,98977.34
2023-05-24T10:05:46.925Z,98978.19
2023-05-24T10:08:16.157Z,98980.25
2023-05-24T10:10:46.222Z,98979.59
2023-05-24T10:13:17.926Z,98971.31
2023-05-24T10:15:51.859Z,98973.66
2023-05-24T10:18:20.098Z,98982.00
2023-05-24T10:20:48.292Z,98966.75
2023-05-24T10:23:21.858Z,98986.59
2023-05-24T10:26:06.760Z,98986.25
2023-05-24T10:28:57.347Z,98992.41
2023-05-24T10:31:29.703Z,98997.50
2023-05-24T10:34:07.102Z,98995.63
2023-05-24T10:36:35.491Z,98994.25
2023-05-24T10:39:04.358Z,99003.50
2023-05-24T10:41:39.915Z,98996.22
2023-05-24T10:44:13.553Z,99000.66
2023-05-24T10:47:17.200Z,99002.69
2023-05-24T10:49:53.016Z,98999.72
2023-05-24T10:52:20.822Z,99003.50
2023-05-24T10:55:19.534Z,99002.94
2023-05-24T10:57:47.787Z,98994.34
2023-05-24T11:00:33.977Z,99014.25
2023-05-24T11:03:08.778Z,99009.75
2023-05-24T11:05:59.832Z,99008.56
2023-05-24T11:08:35.676Z,99008.03
2023-05-24T11:13:41.536Z,99006.06
2023-05-24T11:16:08.969Z,99010.34
2023-05-24T11:18:40.267Z,99010.19
2023-05-24T11:21:08.192Z,99013.19
2023-05-24T11:23:38.274Z,99017.78
2023-05-24T11:26:07.350Z,99013.66
2023-05-24T11:28:38.008Z,99027.03
2023-05-24T11:31:08.879Z,99023.38
2023-05-24T11:33:42.701Z,99010.72
2023-05-24T11:36:10.854Z,99017.88
2023-05-24T11:38:37.957Z,99023.31
2023-05-24T11:41:05.707Z,99024.28
2023-05-24T11:43:33.265Z,99021.38
2023-05-24T11:46:01.646Z,99023.34
2023-05-24T11:48:29.971Z,99014.41
2023-05-24T11:50:58.065Z,99025.09
2023-05-24T11:53:25.468Z,99017.19
2023-05-24T11:55:56.770Z,99021.28
2023-05-24T11:58:26.516Z,99020.94
2023-05-24T12:00:53.683Z,99019.25
2023-05-24T12:03:21.944Z,99020.22
2023-05-24T12:05:52.948Z,99016.72
2023-05-24T12:08:20.599Z,99014.41
2023-05-24T12:10:49.231Z,99014.78
2023-05-24T12:13:25.124Z,99005.69
2023-05-24T12:15:57.033Z,99009.78
2023-05-24T12:18:29.915Z,99008.22
2023-05-24T12:20:57.529Z,99012.59
2023-05-24T12:23:28.016Z,99021.69
2023-05-24T12:26:02.225Z,99003.50
2023-05-24T12:28:37.033Z,99001.78
2023-05-24T12:31:05.810Z,98993.72
2023-05-24T12:33:33.844Z,99005.50
2023-05-24T12:36:01.512Z,99002.59
2023-05-24T12:38:28.761Z,98992.22
2023-05-24T12:41:11.440Z,98988.53
2023-05-24T12:43:41.039Z,98986.09
2023-05-24T12:46:08.073Z,98998.44
2023-05-24T12:48:35.581Z,98989.22
2023-05-24T12:51:03.291Z,98994.69
2023-05-24T12:53:30.329Z,98997.03
2023-05-24T12:55:57.606Z,98990.63
2023-05-24T12:58:25.289Z,98997.75
2023-05-24T13:00:52.684Z,99000.53
2023-05-24T13:03:19.960Z,99004.03
2023-05-24T13:05:47.464Z,98992.81
2023-05-24T13:08:14.863Z,98996.22
2023-05-24T13:10:42.334Z,98999.34
2023-05-24T13:13:09.620Z,99007.31
2023-05-24T13:15:38.164Z,99016.66
2023-05-24T13:18:05.779Z,99013.31
2023-05-24T13:20:33.089Z,99016.69
2023-05-24T13:23:00.941Z,99025.44
2023-05-24T13:25:29.307Z,99013.63
2023-05-24T13:27:56.532Z,99011.91
2023-05-24T13:30:27.870Z,99008.50
2023-05-24T13:32:55.771Z,99013.22
2023-05-24T13:35:23.160Z,99002.59
2023-05-24T13:37:51.273Z,99001.44
2023-05-24T13:40:18.697Z,99006.47
2023-05-24T13:42:45.916Z,99010.66
2023-05-24T13:45:17.158Z,99009.22
2023-05-24T13:47:44.888Z,99009.13
2023-05-24T13:50:12.367Z,99008.78
2023-05-24T13:52:39.769Z,99004.47
2023-05-24T13:55:07.578Z,99006.09
2023-05-24T13:57:50.505Z,99011.25
2023-05-24T14:00:19.613Z,99008.19
2023-05-24T14:02:47.010Z,99008.13
2023-05-24T14:05:26.548Z,99009.63
2023-05-24T14:07:57.661Z,99014.19
2023-05-24T14:10:25.128Z,99012.00
2023-05-24T14:13:07.949Z,99011.19
2023-05-24T14:15:39.379Z,99003.59
2023-05-24T14:18:08.651Z,99006.88
2023-05-24T14:20:38.367Z,99005.78
2023-05-24T14:23:07.613Z,99015.41
2023-05-24T14:25:34.954Z,99006.44
2023-05-24T14:28:01.996Z,99012.19
2023-05-24T14:30:32.105Z,99006.78
2023-05-24T14:33:00.957Z,99008.03
2023-05-24T14:35:28.382Z,99004.75
2023-05-24T14:37:55.428Z,99005.72
2023-05-24T14:40:22.618Z,99005.41
2023-05-24T14:42:49.658Z,99007.84
2023-05-24T14:45:16.973Z,99013.81
2023-05-24T14:47:44.119Z,99008.78
2023-05-24T14:50:11.690Z,99005.78
2023-05-24T14:52:38.766Z,99009.53
2023-05-24T14:55:06.210Z,99016.88
2023-05-24T14:57:33.386Z,99018.25
2023-05-24T15:00:00.721Z,99011.81
2023-05-24T15:02:29.721Z,99011.28
2023-05-24T15:04:56.910Z,99007.63
2023-05-24T15:07:24.420Z,99012.13
2023-05-24T15:09:51.493Z,99008.63
2023-05-24T15:12:18.588Z,99013.13
2023-05-24T15:14:46.218Z,99014.72
2023-05-24T15:17:13.809Z,99008.78
2023-05-24T15:19:41.388Z,99009.59
2023-05-24T15:22:08.699Z,99003.94
2023-05-24T15:24:37.925Z,99004.31
2023-05-24T15:27:05.363Z,99004.34
2023-05-24T15:29:32.532Z,99000.03
2023-05-24T15:32:01.562Z,98999.00
2023-05-24T15:34:28.900Z,99004.00
2023-05-24T15:36:56.495Z,99012.44
2023-05-24T15:39:23.670Z,99014.16
2023-05-24T15:41:50.767Z,99014.28
2023-05-24T15:44:18.012Z,99023.97
2023-05-24T15:46:45.167Z,99019.03
2023-05-24T15:49:12.239Z,99023.16
2023-05-24T15:54:09.282Z,99026.72
2023-05-24T15:56:39.364Z,99020.63
2023-05-24T15:59:06.667Z,99031.09
2023-05-24T16:01:33.810Z,99022.25
2023-05-24T16:04:01.201Z,99025.09
2023-05-24T16:06:28.936Z,99012.81
2023-05-24T16:08:56.069Z,99024.19
2023-05-24T16:11:24.547Z,99017.41
2023-05-24T16:13:56.464Z,99015.22
2023-05-24T16:16:23.840Z,99023.72
2023-05-24T16:18:51.265Z,99018.41
2023-05-24T16:21:18.350Z,99014.25
2023-05-24T16:23:46.222Z,99015.75
2023-05-24T16:26:14.077Z,99018.84
2023-05-24T16:28:41.507Z,99015.63
2023-05-24T16:31:09.045Z,99014.38
2023-05-24T16:33:36.294Z,99012.72
2023-05-24T16:36:04.745Z,99012.28
2023-05-24T16:38:32.887Z,99011.34
2023-05-24T16:40:59.976Z,99017.53
2023-05-24T16:43:27.205Z,99010.41
2023-05-24T16:45:55.434Z,99030.88
2023-05-24T16:48:28.627Z,99021.97
2023-05-24T16:50:56.860Z,99016.69
2023-05-24T16:53:26.309Z,99024.16
2023-05-24T16:55:56.365Z,99017.38
2023-05-24T16:58:24.810Z,99024.25
2023-05-24T17:00:54.422Z,99034.00
2023-05-24T17:03:28.077Z,99036.16
2023-05-24T17:05:57.999Z,99038.31
2023-05-24T17:08:28.627Z,99031.88
2023-05-24T17:10:59.171Z,99043.91
2023-05-24T17:13:27.629Z,99046.41
2023-05-24T17:15:55.981Z,99054.06
2023-05-24T17:18:30.478Z,99049.88
2023-05-24T17:20:59.933Z,99057.88
2023-05-24T17:23:28.891Z,99066.31
2023-05-24T17:25:56.060Z,99065.38
2023-05-24T17:28:27.691Z,99072.22
2023-05-24T17:30:56.167Z,99065.44
2023-05-24T17:33:25.307Z,99067.22
2023-05-24T17:35:52.883Z,99065.81
2023-05-24T17:38:20.344Z,99070.84
2023-05-24T17:40:56.103Z,99078.50
2023-05-24T17:43:23.532Z,99080.09
2023-05-24T17:45:51.125Z,99085.66
2023-05-24T17:48:18.292Z,99086.34
2023-05-24T17:50:48.129Z,99085.03
2023-05-24T17:53:30.344Z,99084.88
2023-05-24T17:55:58.840Z,99084.75
2023-05-24T17:58:26.238Z,99088.16
2023-05-24T18:00:53.523Z,99091.25
2023-05-24T18:03:20.936Z,99091.91
2023-05-24T18:05:48.251Z,99092.56
2023-05-24T18:08:15.510Z,99094.50
2023-05-24T18:10:42.682Z,99099.88
2023-05-24T18:13:09.995Z,99099.06
2023-05-24T18:15:37.541Z,99099.72
2023-05-24T18:18:04.879Z,99096.16
2023-05-24T18:20:32.473Z,99100.34
2023-05-24T18:23:01.826Z,99098.25
2023-05-24T18:25:29.171Z,99102.16
2023-05-24T18:27:57.030Z,99115.44
2023-05-24T18:30:24.154Z,99102.81
2023-05-24T18:33:04.351Z,99105.91
2023-05-24T18:35:32.957Z,99103.47
2023-05-24T18:38:00.181Z,99110.13
2023-05-24T18:40:27.621Z,99104.94
2023-05-24T18:42:55.586Z,99109.59
2023-05-24T18:45:23.178Z,99103.63
2023-05-24T18:47:53.133Z,99103.97
2023-05-24T18:50:23.636Z,99109.47
2023-05-24T18:52:51.027Z,99105.09
2023-05-24T18:55:18.289Z,99103.81
2023-05-24T18:57:45.577Z,99097.50
2023-05-24T19:00:25.789Z,99092.34
2023-05-24T19:02:55.872Z,99104.66
2023-05-24T19:05:23.136Z,99100.44
2023-05-24T19:07:53.011Z,99102.19
2023-05-24T19:10:20.929Z,99097.69
2023-05-24T19:12:50.948Z,99101.56
2023-05-24T19:15:18.511Z,99099.16
2023-05-24T19:17:45.723Z,99104.81
2023-05-24T19:20:13.517Z,99106.59
2023-05-24T19:22:40.633Z,99110.81
2023-05-24T19:25:08.368Z,99106.31
2023-05-24T19:27:37.870Z,99102.59
2023-05-24T19:30:07.717Z,99096.44
2023-05-24T19:32:35.860Z,99095.78
2023-05-24T19:35:03.354Z,99093.22
2023-05-24T19:37:32.075Z,99090.16
2023-05-24T19:40:00.370Z,99088.38
2023-05-24T19:42:27.501Z,99084.50
2023-05-24T19:44:54.894Z,99080.28
2023-05-24T19:47:22.111Z,99077.19
2023-05-24T19:49:49.539Z,99082.38
2023-05-24T19:52:22.046Z,99084.44
2023-05-24T19:54:50.817Z,99087.66
2023-05-24T19:57:17.958Z,99093.31
2023-05-24T19:59:45.014Z,99093.97
2023-05-24T20:02:12.335Z,99089.75
2023-05-24T20:04:42.019Z,99094.75
2023-05-24T20:07:09.152Z,99082.78
2023-05-24T20:09:36.445Z,99082.13
2023-05-24T20:12:03.592Z,99087.44
2023-05-24T20:14:31.844Z,99089.53
2023-05-24T20:16:59.577Z,99086.94
2023-05-24T20:19:27.280Z,99090.66
2023-05-24T20:21:54.643Z,99090.44
2023-05-24T20:24:22.036Z,99099.31
2023-05-24T20:26:49.181Z,99088.00
2023-05-24T20:29:16.362Z,99093.00
2023-05-24T20:31:43.630Z,99093.94
2023-05-24T20:34:10.797Z,99087.50
2023-05-24T20:36:38.621Z,99084.84
2023-05-24T20:39:05.709Z,99085.78
2023-05-24T20:41:34.183Z,99093.03
2023-05-24T20:44:01.677Z,99089.63
2023-05-24T20:46:29.282Z,99088.63
2023-05-24T20:48:57.470Z,99092.63
2023-05-24T20:51:24.902Z,99101.50
2023-05-24T20:53:53.239Z,99100.19
2023-05-24T20:56:23.113Z,99098.56
2023-05-24T20:58:53.202Z,99099.16
2023-05-24T21:01:21.286Z,99099.00
2023-05-24T21:03:48.424Z,99098.00
2023-05-24T21:06:15.673Z,99093.78
2023-05-24T21:08:43.562Z,99091.66
2023-05-24T21:11:10.785Z,99096.16
2023-05-24T21:13:38.234Z,99097.09
2023-05-24T21:16:05.665Z,99093.03
2023-05-24T21:18:33.632Z,99094.47
2023-05-24T21:21:01.224Z,99102.19
2023-05-24T21:23:30.385Z,99100.06
2023-05-24T21:25:57.498Z,99099.06
2023-05-24T21:28:24.647Z,99088.13
2023-05-24T21:30:51.770Z,99092.28
2023-05-24T21:33:20.777Z,99081.97
2023-05-24T21:35:48.121Z,99080.16
2023-05-24T21:38:15.490Z,99077.41
2023-05-24T21:40:42.711Z,99076.13
2023-05-24T21:43:12.432Z,99072.34
2023-05-24T21:45:40.603Z,99074.28
2023-05-24T21:48:08.992Z,99067.50
2023-05-24T21:50:37.133Z,99062.34
2023-05-24T21:53:04.426Z,99058.78
2023-05-24T21:55:31.615Z,99058.78
2023-05-24T21:57:58.750Z,99049.28
2023-05-24T22:00:27.095Z,99052.31
2023-05-24T22:02:54.584Z,99046.31
2023-05-24T22:05:21.668Z,99044.03
2023-05-24T22:07:48.828Z,99044.50
2023-05-24T22:10:16.052Z,99049.50
2023-05-24T22:12:43.352Z,99043.22
2023-05-24T22:15:11.006Z,99044.94
2023-05-24T22:17:41.011Z,99046.88
2023-05-24T22:20:09.337Z,99048.00
2023-05-24T22:22:40.281Z,99047.50
2023-05-24T22:25:08.877Z,99039.59
2023-05-24T22:27:36.124Z,99044.53
2023-05-24T22:30:03.578Z,99055.81
2023-05-24T22:32:33.645Z,99059.97
2023-05-24T22:35:01.165Z,99064.13
2023-05-24T22:37:32.549Z,99056.72
2023-05-24T22:39:59.980Z,99063.31
2023-05-24T22:42:27.173Z,99068.31
2023-05-24T22:44:54.247Z,99067.00
2023-05-24T22:47:23.028Z,99071.16
2023-05-24T22:49:54.227Z,99078.38
2023-05-24T22:52:21.936Z,99086.06
2023-05-24T22:54:48.912Z,99088.31
2023-05-24T22:57:21.587Z,99088.13
2023-05-24T22:59:49.575Z,99080.50
2023-05-24T23:02:17.020Z,99079.50
2023-05-24T23:04:47.627Z,99090.44
2023-05-24T23:07:15.568Z,99088.00
2023-05-24T23:09:44.025Z,99090.72
2023-05-24T23:12:11.903Z,99091.53
2023-05-24T23:14:41.771Z,99084.16
2023-05-24T23:17:17.277Z,99084.84
2023-05-24T23:19:44.623Z,99082.03
2023-05-24T23:22:13.078Z,99066.59
2023-05-24T23:24:44.951Z,99078.56
2023-05-24T23:27:12.189Z,99082.91
2023-05-24T23:29:39.415Z,99071.66
2023-05-24T23:32:10.737Z,99069.41
2023-05-24T23:34:38.077Z,99072.97
2023-05-24T23:37:05.786Z,99072.97
2023-05-24T23:39:33.167Z,99076.50
2023-05-24T23:42:02.660Z,99072.34
2023-05-24T23:44:30.247Z,99071.84
2023-05-24T23:46:58.109Z,99076.38
2023-05-24T23:49:25.879Z,99068.38
2023-05-24T23:51:53.348Z,99071.91
2023-05-24T23:54:20.555Z,99069.19
2023-05-24T23:56:47.930Z,99074.66
2023-05-24T23:59:17.038Z,99075.19
